CMA CGM Cayenne — 2IIX7 — position and weather

sailwx.info

Track history (hours):
 
Tides and Currents Weather Stations Pressure Air Temp Water Temp Dewpoint Dewpoint Depression Visibility Wind Speed Wind Dir Waves Ship Positions

CMA CGM Cayenne

Last reported at 2018-May-24 02:31 UTC. Time now 2018-May-24 02:29 UTC.
Position N 51°20' E 001°39'.

Length 190 m; draft 9.2 m.

Type: Ship (hazmat cat A). MMSI: 235110142.

Date/timePositionNaut miles runAvg speedWind from/ knotsBaromVisibWave heightAir tempDewpointWater temp
2018-May-24 02:31N 51°20' E 001°39'3 6.2
2018-May-24 02:01N 51°17' E 001°41'2 3.5
2018-May-24 01:31N 51°15' E 001°42'2 4.8
2018-May-24 01:00N 51°13' E 001°42'2 3.3
2018-May-24 00:31N 51°13' E 001°44'3 5.6
2018-May-24 00:00N 51°15' E 001°47'2 5.0
2018-May-23 23:31N 51°17' E 001°49'2 4.7
2018-May-23 23:00N 51°19' E 001°50'3 6.8
2018-May-23 22:31N 51°22' E 001°54'4 8.2
2018-May-23 22:00N 51°24' E 001°59'2 4.6
2018-May-23 21:30N 51°23' E 002°01'510.2
2018-May-23 21:01N 51°18' E 001°56'510.0
2018-May-23 20:30N 51°15' E 001°51'510.1
2018-May-23 20:00N 51°11' E 001°45'510.3
2018-May-23 19:31N 51°07' E 001°40'510.5
2018-May-23 19:01N 51°02' E 001°36'510.0
2018-May-23 18:31N 50°58' E 001°31'5 9.5
2018-May-23 17:59N 50°54' E 001°27'4 9.1
2018-May-23 17:31N 50°50' E 001°25'50 7.6
2018-May-23 10:57N 50°23' E 000°19'4 7.5
2018-May-23 10:26N 50°22' E 000°13'3 7.6
2018-May-23 10:00N 50°21' E 000°08'5 9.7
2018-May-23 09:30N 50°20' E 000°01'510.0
2018-May-23 09:00N 50°18' W 000°07'510.1
2018-May-23 08:30N 50°17' W 000°14'510.0
2018-May-23 08:00N 50°16' W 000°22'5 9.8
2018-May-23 07:30N 50°14' W 000°29'5 9.7
2018-May-23 07:00N 50°13' W 000°36'510.2
2018-May-23 06:30N 50°12' W 000°44'912.3
2018-May-23 05:48N 50°10' W 000°57'613.2
2018-May-23 05:20N 50°08' W 001°06'513.9
2018-May-23 05:00N 50°07' W 001°13'714.2
2018-May-23 04:30N 50°05' W 001°24'714.8
2018-May-23 04:00N 50°03' W 001°35'815.3
2018-May-23 03:30N 50°02' W 001°47'815.5
2018-May-23 03:00N 50°00' W 001°58'815.6
2018-May-23 02:30N 49°58' W 002°10'2015.2
2018-May-23 01:10N 49°53' W 002°41'214.8
2018-May-23 01:00N 49°52' W 002°44'714.6
2018-May-23 00:31N 49°49' W 002°54'714.2
2018-May-23 00:00N 49°45' W 003°04'714.1
2018-May-22 23:31N 49°41' W 003°13'914.1
2018-May-22 22:54N 49°37' W 003°24'5914.1
2018-May-22 18:41N 49°07' W 004°43'413.8
2018-May-22 18:25N 49°05' W 004°48'913.7
2018-May-22 17:44N 49°01' W 005°00'313.3
2018-May-22 17:30N 48°59' W 005°04'713.4
2018-May-22 17:00N 48°56' W 005°13'713.2
2018-May-22 16:30N 48°53' W 005°22'713.1
2018-May-22 16:00N 48°50' W 005°31'712.8
2018-May-22 15:28N 48°46' W 005°39'1412.8
2018-May-22 14:20N 48°33' W 005°51'512.7
2018-May-22 13:57N 48°29' W 005°55'4113.0
2018-May-22 10:48N 47°57' W 006°33'1413.9
2018-May-22 09:48N 47°47' W 006°47'  
Track history (hours):
 
Tides and Currents Weather Stations Pressure Air Temp Water Temp Dewpoint Dewpoint Depression Visibility Wind Speed Wind Dir Waves Ship Positions

CMA CGM Cayenne

Last reported at 2018-May-24 02:31 UTC. Time now 2018-May-24 02:29 UTC.
Position N 51°20' E 001°39'.

Length 190 m; draft 9.2 m.

Type: Ship (hazmat cat A). MMSI: 235110142.

Date/timePositionNaut miles runAvg speedWind from/ knotsBaromVisibWave heightAir tempDewpointWater temp
2018-May-24 02:31N 51°20' E 001°39'3 6.2
2018-May-24 02:01N 51°17' E 001°41'2 3.5
2018-May-24 01:31N 51°15' E 001°42'2 4.8
2018-May-24 01:00N 51°13' E 001°42'2 3.3
2018-May-24 00:31N 51°13' E 001°44'3 5.6
2018-May-24 00:00N 51°15' E 001°47'2 5.0
2018-May-23 23:31N 51°17' E 001°49'2 4.7
2018-May-23 23:00N 51°19' E 001°50'3 6.8
2018-May-23 22:31N 51°22' E 001°54'4 8.2
2018-May-23 22:00N 51°24' E 001°59'2 4.6
2018-May-23 21:30N 51°23' E 002°01'510.2
2018-May-23 21:01N 51°18' E 001°56'510.0
2018-May-23 20:30N 51°15' E 001°51'510.1
2018-May-23 20:00N 51°11' E 001°45'510.3
2018-May-23 19:31N 51°07' E 001°40'510.5
2018-May-23 19:01N 51°02' E 001°36'510.0
2018-May-23 18:31N 50°58' E 001°31'5 9.5
2018-May-23 17:59N 50°54' E 001°27'4 9.1
2018-May-23 17:31N 50°50' E 001°25'50 7.6
2018-May-23 10:57N 50°23' E 000°19'4 7.5
2018-May-23 10:26N 50°22' E 000°13'3 7.6
2018-May-23 10:00N 50°21' E 000°08'5 9.7
2018-May-23 09:30N 50°20' E 000°01'510.0
2018-May-23 09:00N 50°18' W 000°07'510.1
2018-May-23 08:30N 50°17' W 000°14'510.0
2018-May-23 08:00N 50°16' W 000°22'5 9.8
2018-May-23 07:30N 50°14' W 000°29'5 9.7
2018-May-23 07:00N 50°13' W 000°36'510.2
2018-May-23 06:30N 50°12' W 000°44'912.3
2018-May-23 05:48N 50°10' W 000°57'613.2
2018-May-23 05:20N 50°08' W 001°06'513.9
2018-May-23 05:00N 50°07' W 001°13'714.2
2018-May-23 04:30N 50°05' W 001°24'714.8
2018-May-23 04:00N 50°03' W 001°35'815.3
2018-May-23 03:30N 50°02' W 001°47'815.5
2018-May-23 03:00N 50°00' W 001°58'815.6
2018-May-23 02:30N 49°58' W 002°10'2015.2
2018-May-23 01:10N 49°53' W 002°41'214.8
2018-May-23 01:00N 49°52' W 002°44'714.6
2018-May-23 00:31N 49°49' W 002°54'714.2
2018-May-23 00:00N 49°45' W 003°04'714.1
2018-May-22 23:31N 49°41' W 003°13'914.1
2018-May-22 22:54N 49°37' W 003°24'5914.1
2018-May-22 18:41N 49°07' W 004°43'413.8
2018-May-22 18:25N 49°05' W 004°48'913.7
2018-May-22 17:44N 49°01' W 005°00'313.3
2018-May-22 17:30N 48°59' W 005°04'713.4
2018-May-22 17:00N 48°56' W 005°13'713.2
2018-May-22 16:30N 48°53' W 005°22'713.1
2018-May-22 16:00N 48°50' W 005°31'712.8
2018-May-22 15:28N 48°46' W 005°39'1412.8
2018-May-22 14:20N 48°33' W 005°51'512.7
2018-May-22 13:57N 48°29' W 005°55'4113.0
2018-May-22 10:48N 47°57' W 006°33'1413.9
2018-May-22 09:48N 47°47' W 006°47'  

Dump ship's entire track history